Time;durP1;ratioP1;P1;durP2;ratioP2;P2;SDS_P1;SDS_P2;PMS_P1;PMS_P2;Temp;Humidity;BMP_temperature;BMP_pressure;BME280_temperature;BME280_humidity;BME280_pressure;Samples;Min_cycle;Max_cycle;Signal;HPM_P1;HPM_P2
2022/07/05 12:13:31;;;;;;;14.45;2.65;;;871.00;1203.20;;;;;;5106645;28;20039;-74
2022/07/05 12:16:01;;;;;;;14.20;2.20;;;896.00;1177.60;;;;;;5106691;28;20024;-73
2022/07/05 12:18:28;;;;;;;9.50;2.05;;;896.20;1152.00;;;;;;5105820;28;20054;-72
2022/07/05 12:20:53;;;;;;;13.40;2.30;;;896.30;1126.40;;;;;;5107636;28;20012;-73
2022/07/05 12:23:26;;;;;;;8.23;2.00;;;896.40;1126.40;;;;;;5108561;28;20023;-74
2022/07/05 12:25:52;;;;;;;9.65;2.42;;;896.60;1126.40;;;;;;5106538;28;20020;-74
2022/07/05 12:28:18;;;;;;;13.43;2.35;;;896.80;1100.80;;;;;;5107960;28;20097;-75
2022/07/05 12:30:44;;;;;;;9.10;2.55;;;896.80;1100.80;;;;;;5108256;28;20038;-73
2022/07/05 12:33:12;;;;;;;14.90;2.67;;;896.50;1100.80;;;;;;5108110;28;20024;-75
2022/07/05 12:35:45;;;;;;;22.42;3.03;;;896.50;1100.80;;;;;;5108467;28;20024;-74
2022/07/05 12:38:19;;;;;;;21.50;2.70;;;896.10;1100.80;;;;;;5116634;28;20023;-75
2022/07/05 12:40:48;;;;;;;12.00;2.38;;;896.00;1126.40;;;;;;5109462;28;20024;-75
2022/07/05 12:43:17;;;;;;;9.50;2.60;;;896.00;1100.80;;;;;;5108569;28;20020;-74
2022/07/05 12:45:58;;;;;;;10.85;3.17;;;896.10;1100.80;;;;;;5108312;28;20597;-77
2022/07/05 12:48:34;;;;;;;15.60;3.58;;;871.00;1100.80;;;;;;5108356;28;20016;-74
2022/07/05 12:51:00;;;;;;;7.60;2.55;;;871.10;1126.40;;;;;;5108853;28;20573;-73
2022/07/05 12:58:58;;;;;;;6.53;3.22;;;871.10;1152.00;;;;;;5105324;28;20035;-74
2022/07/05 13:01:28;;;;;;;11.43;3.42;;;871.20;1152.00;;;;;;5108152;28;20034;-73
2022/07/05 13:04:11;;;;;;;11.00;3.90;;;871.10;1177.60;;;;;;5107351;28;20023;-71
2022/07/05 13:06:56;;;;;;;8.27;3.60;;;871.20;1152.00;;;;;;5105325;28;20024;-75
2022/07/05 13:09:37;;;;;;;8.55;3.10;;;871.00;1177.60;;;;;;5107073;28;20508;-73
2022/07/05 13:12:07;;;;;;;9.82;3.47;;;871.20;1203.20;;;;;;5107278;28;20020;-74
2022/07/05 13:14:35;;;;;;;6.70;3.03;;;871.00;1203.20;;;;;;5107433;28;20020;-73
2022/07/05 13:17:01;;;;;;;3.85;2.78;;;871.00;1203.20;;;;;;5107347;28;20027;-70
2022/07/05 13:19:27;;;;;;;4.93;2.88;;;871.10;1203.20;;;;;;5107222;28;20030;-75
2022/07/05 13:21:53;;;;;;;7.28;3.17;;;870.80;1228.80;;;;;;5095658;28;20125;-73
2022/07/05 13:24:19;;;;;;;9.18;2.85;;;870.70;1228.80;;;;;;5094996;28;20024;-74
2022/07/05 13:26:45;;;;;;;8.57;3.25;;;870.70;1203.20;;;;;;5095238;28;20077;-75
2022/07/05 13:29:11;;;;;;;5.45;2.88;;;871.00;1228.80;;;;;;5094366;28;20119;-79
2022/07/05 13:31:37;;;;;;;14.18;3.53;;;871.00;1203.20;;;;;;5095051;28;20017;-71
2022/07/05 13:34:03;;;;;;;12.23;3.72;;;870.60;1228.80;;;;;;5095104;28;20024;-73
2022/07/05 13:36:30;;;;;;;10.23;3.10;;;870.50;1254.40;;;;;;5094991;28;20054;-78
2022/07/05 13:38:56;;;;;;;10.82;3.47;;;870.40;1305.60;;;;;;5093437;28;20023;-74
2022/07/05 13:41:22;;;;;;;9.43;3.65;;;;;;;;;;5093896;28;20028;-74
2022/07/05 13:43:48;;;;;;;8.15;3.05;;;;;;;;;;5093770;28;20020;-74
2022/07/05 13:46:14;;;;;;;9.32;3.25;;;;;;;;;;5095000;28;20054;-77
2022/07/05 13:48:41;;;;;;;8.18;2.72;;;;;;;;;;5094629;28;20047;-77
2022/07/05 13:51:07;;;;;;;7.13;3.05;;;;;;;;;;5094435;28;20024;-77
2022/07/05 13:53:33;;;;;;;8.98;3.00;;;845.60;1228.80;;;;;;5094819;28;20023;-75
2022/07/05 13:55:59;;;;;;;5.93;3.13;;;845.70;1228.80;;;;;;5094599;28;20459;-77
2022/07/05 13:58:25;;;;;;;4.45;2.58;;;870.40;1228.80;;;;;;5094849;28;20020;-75
2022/07/05 14:00:51;;;;;;;8.50;2.60;;;845.60;1228.80;;;;;;5094426;28;20369;-74
2022/07/05 14:03:16;;;;;;;5.43;2.80;;;845.70;1254.40;;;;;;5093300;28;20035;-75
2022/07/05 14:05:46;;;;;;;7.78;2.67;;;845.60;1254.40;;;;;;5094670;28;20403;-75
2022/07/05 14:08:12;;;;;;;6.25;2.70;;;845.70;1254.40;;;;;;5094420;28;20024;-75
2022/07/05 14:10:39;;;;;;;6.30;2.80;;;845.50;1254.40;;;;;;5094118;28;20048;-73
2022/07/05 14:13:05;;;;;;;7.45;2.63;;;845.60;1280.00;;;;;;5094473;28;20031;-73
2022/07/05 14:15:32;;;;;;;7.63;2.45;;;845.50;1280.00;;;;;;5093203;28;20024;-75
2022/07/05 14:18:02;;;;;;;8.77;2.80;;;845.70;1280.00;;;;;;5094129;28;20020;-74
2022/07/05 14:20:28;;;;;;;13.15;3.45;;;870.40;1280.00;;;;;;5094394;28;20420;-73
2022/07/05 14:22:54;;;;;;;6.15;2.88;;;845.50;1280.00;;;;;;5094107;28;20023;-74
2022/07/05 14:25:19;;;;;;;7.32;2.95;;;845.50;1280.00;;;;;;5094037;28;20475;-73
2022/07/05 14:27:45;;;;;;;8.93;2.70;;;845.50;1280.00;;;;;;5094081;28;20028;-74
2022/07/05 14:30:11;;;;;;;8.02;2.75;;;845.50;1280.00;;;;;;5093685;28;20032;-74
2022/07/05 14:32:37;;;;;;;7.88;2.92;;;845.40;1280.00;;;;;;5092962;28;20397;-75
2022/07/05 14:35:05;;;;;;;8.13;2.92;;;845.00;1305.60;;;;;;5093810;28;20462;-75
2022/07/05 14:37:31;;;;;;;13.48;2.72;;;845.10;1305.60;;;;;;5094122;28;20054;-74
2022/07/05 14:39:56;;;;;;;9.70;2.92;;;844.90;1331.20;;;;;;5093621;28;20380;-73
2022/07/05 14:42:22;;;;;;;6.65;2.70;;;844.90;1331.20;;;;;;5093799;28;20027;-75
2022/07/05 14:44:48;;;;;;;9.57;3.00;;;844.90;1305.60;;;;;;5092344;28;20426;-75
2022/07/05 14:47:14;;;;;;;12.45;8.20;;;844.80;1305.60;;;;;;5093523;28;20111;-73
2022/07/05 14:49:40;;;;;;;6.47;2.70;;;844.80;1331.20;;;;;;5093306;28;20044;-73
2022/07/05 14:52:06;;;;;;;5.47;2.25;;;844.80;1331.20;;;;;;5092964;28;20040;-75
2022/07/05 14:54:32;;;;;;;4.25;2.40;;;844.80;1331.20;;;;;;5092603;28;20051;-77
2022/07/05 14:56:57;;;;;;;81.35;52.75;;;844.80;1331.20;;;;;;5093410;28;20479;-75
2022/07/05 14:59:23;;;;;;;11.07;5.60;;;844.80;1356.80;;;;;;5093835;28;20034;-75
2022/07/05 15:01:49;;;;;;;8.27;3.55;;;819.90;1305.60;;;;;;5093277;28;20099;-75
2022/07/05 15:04:15;;;;;;;3.05;2.35;;;819.90;1331.20;;;;;;5093275;28;20061;-74
2022/07/05 15:06:41;;;;;;;7.78;3.17;;;819.90;1331.20;;;;;;5093330;28;20024;-76
2022/07/05 15:09:07;;;;;;;3.30;2.35;;;819.90;1331.20;;;;;;5092836;28;20044;-75
2022/07/05 15:11:33;;;;;;;15.40;3.17;;;819.80;1305.60;;;;;;5092978;28;20031;-78
2022/07/05 15:14:01;;;;;;;5.57;3.38;;;819.80;1331.20;;;;;;5092582;28;20020;-76
2022/07/05 15:16:27;;;;;;;6.20;3.00;;;819.80;1331.20;;;;;;5091400;28;20377;-76
2022/07/05 15:18:53;;;;;;;4.88;2.33;;;819.70;1331.20;;;;;;5093061;28;20224;-73
2022/07/05 15:21:19;;;;;;;7.68;2.33;;;819.80;1305.60;;;;;;5092657;28;20024;-75
2022/07/05 15:23:45;;;;;;;4.03;2.45;;;819.70;1331.20;;;;;;5093102;28;20073;-80
2022/07/05 15:26:11;;;;;;;5.45;2.85;;;819.40;1331.20;;;;;;5092867;28;20040;-77
2022/07/05 15:28:36;;;;;;;7.47;2.65;;;819.20;1356.80;;;;;;5091769;28;20032;-75
2022/07/05 15:31:02;;;;;;;20.33;9.30;;;794.50;1382.40;;;;;;5092752;28;20054;-77
2022/07/05 15:33:29;;;;;;;16.88;9.15;;;794.30;1382.40;;;;;;5092791;28;20407;-77
2022/07/05 15:35:58;;;;;;;17.63;9.73;;;794.20;1382.40;;;;;;5092726;28;20020;-76
2022/07/05 15:38:28;;;;;;;28.42;4.28;;;794.20;1382.40;;;;;;5097357;28;20016;-74
2022/07/05 15:40:54;;;;;;;11.90;7.32;;;794.20;1382.40;;;;;;5113137;28;20024;-77
2022/07/05 15:43:24;;;;;;;7.50;4.30;;;794.00;1408.00;;;;;;5112461;28;20019;-78
2022/07/05 15:45:51;;;;;;;5.47;3.40;;;793.80;1408.00;;;;;;5113050;28;20096;-75
2022/07/05 15:48:16;;;;;;;7.50;4.63;;;793.80;1408.00;;;;;;5112960;28;20690;-77
2022/07/05 15:50:42;;;;;;;6.68;3.08;;;793.90;1408.00;;;;;;5112896;28;20080;-77
2022/07/05 15:53:08;;;;;;;13.15;4.22;;;793.80;1408.00;;;;;;5113116;28;20020;-77
2022/07/05 15:55:34;;;;;;;15.65;8.00;;;;;;;;;;5113140;28;20577;-77
2022/07/05 15:58:00;;;;;;;5.32;3.90;;;768.70;1408.00;;;;;;5103340;28;20032;-76
2022/07/05 16:00:26;;;;;;;10.95;3.17;;;768.60;1408.00;;;;;;5092825;28;20027;-78
2022/07/05 16:02:51;;;;;;;13.73;3.63;;;768.70;1382.40;;;;;;5092359;28;20028;-77
2022/07/05 16:05:17;;;;;;;6.22;4.07;;;768.60;1408.00;;;;;;5092312;28;20095;-77
2022/07/05 16:07:43;;;;;;;9.25;3.92;;;768.30;1433.60;;;;;;5092441;28;20032;-77
2022/07/05 16:10:09;;;;;;;4.10;2.53;;;768.20;1459.20;;;;;;5091986;28;20058;-78
2022/07/05 16:12:35;;;;;;;5.43;2.45;;;768.10;1459.20;;;;;;5092502;28;20094;-78
2022/07/05 16:15:01;;;;;;;7.55;4.78;;;768.10;1484.80;;;;;;5091930;28;20051;-75
2022/07/05 16:17:27;;;;;;;16.98;6.55;;;743.30;1484.80;;;;;;5092289;28;20062;-81
2022/07/05 16:19:53;;;;;;;3.95;3.50;;;743.20;1510.40;;;;;;5092331;28;20502;-77
2022/07/05 16:22:19;;;;;;;4.70;2.13;;;743.10;1484.80;;;;;;5092444;28;20028;-77
2022/07/05 16:24:45;;;;;;;5.80;2.88;;;743.00;1484.80;;;;;;5092253;28;20024;-77
2022/07/05 16:27:11;;;;;;;7.40;2.60;;;743.00;1510.40;;;;;;5092395;28;20107;-77
2022/07/05 16:29:36;;;;;;;11.82;2.75;;;742.90;1510.40;;;;;;5092213;28;20032;-80
2022/07/05 16:32:03;;;;;;;4.63;2.40;;;742.70;1510.40;;;;;;5107754;28;20016;-77
2022/07/05 16:34:28;;;;;;;12.65;2.20;;;742.70;1536.00;;;;;;5091943;28;20403;-78
2022/07/05 16:36:56;;;;;;;5.20;2.10;;;742.50;1561.60;;;;;;5090834;28;20020;-77
2022/07/05 16:39:22;;;;;;;2.85;1.80;;;742.50;1561.60;;;;;;5092090;28;20020;-75
2022/07/05 16:41:48;;;;;;;13.00;6.20;;;742.40;1587.20;;;;;;5092117;28;20464;-82
2022/07/05 16:44:14;;;;;;;6.95;2.25;;;717.70;1561.60;;;;;;5091765;28;20039;-77
2022/07/05 16:46:40;;;;;;;6.55;2.40;;;717.70;1561.60;;;;;;5090862;28;20020;-77
2022/07/05 16:49:06;;;;;;;7.82;2.35;;;717.70;1561.60;;;;;;5092037;28;20028;-76
2022/07/05 16:51:32;;;;;;;9.95;4.20;;;717.70;1561.60;;;;;;5090830;28;20023;-76
2022/07/05 16:53:59;;;;;;;4.32;2.50;;;717.60;1587.20;;;;;;5086804;28;20031;-75
2022/07/05 16:56:24;;;;;;;5.05;2.00;;;717.60;1587.20;;;;;;5092445;28;20024;-76
2022/07/05 16:58:56;;;;;;;16.08;3.65;;;717.60;1587.20;;;;;;5095834;28;20034;-75
2022/07/05 17:01:23;;;;;;;15.63;3.85;;;717.50;1587.20;;;;;;5095862;28;20024;-76
2022/07/05 17:03:51;;;;;;;4.15;2.25;;;717.40;1587.20;;;;;;5095554;28;20028;-77
2022/07/05 17:06:17;;;;;;;7.80;1.77;;;717.40;1587.20;;;;;;5095437;28;20016;-74
2022/07/05 17:08:45;;;;;;;5.18;2.13;;;717.30;1587.20;;;;;;5093975;28;20048;-74
2022/07/05 17:11:14;;;;;;;6.97;2.20;;;717.30;1612.80;;;;;;5094320;28;20111;-76
2022/07/05 17:13:44;;;;;;;5.32;2.28;;;717.30;1587.20;;;;;;5095318;28;20008;-75
2022/07/05 17:16:12;;;;;;;4.55;2.22;;;717.20;1587.20;;;;;;5095332;28;20055;-76
2022/07/05 17:18:40;;;;;;;3.65;2.20;;;717.10;1612.80;;;;;;5094089;28;20048;-75
2022/07/05 17:21:07;;;;;;;18.75;12.48;;;717.00;1612.80;;;;;;5095462;28;20020;-74
2022/07/05 17:23:35;;;;;;;9.93;5.40;;;717.00;1612.80;;;;;;5094145;28;20023;-76
2022/07/05 17:26:03;;;;;;;5.85;2.33;;;716.90;1638.40;;;;;;5093691;28;20516;-76
2022/07/05 17:28:28;;;;;;;5.43;2.55;;;716.80;1638.40;;;;;;5093958;28;20020;-75
2022/07/05 17:30:54;;;;;;;7.63;2.85;;;716.80;1638.40;;;;;;5095265;28;20034;-74
2022/07/05 17:33:20;;;;;;;26.55;18.67;;;716.80;1638.40;;;;;;5095134;28;20438;-75
2022/07/05 17:35:46;;;;;;;6.10;3.17;;;692.10;1638.40;;;;;;5094592;28;20524;-74
2022/07/05 17:38:12;;;;;;;14.20;7.32;;;692.00;1638.40;;;;;;5093833;28;20120;-76
2022/07/05 17:40:37;;;;;;;9.65;5.10;;;692.00;1638.40;;;;;;5093688;28;20320;-76
2022/07/05 17:43:03;;;;;;;4.90;2.88;;;691.90;1638.40;;;;;;5094226;28;20081;-78
2022/07/05 17:45:30;;;;;;;5.75;3.00;;;691.90;1638.40;;;;;;5094248;28;20533;-76
2022/07/05 17:47:55;;;;;;;3.58;2.08;;;691.80;1664.00;;;;;;5094040;28;20142;-74
2022/07/05 17:50:21;;;;;;;8.18;3.10;;;691.80;1664.00;;;;;;5094220;28;20118;-75
2022/07/05 17:52:47;;;;;;;5.93;2.30;;;691.80;1664.00;;;;;;5091425;28;20495;-76
2022/07/05 17:55:13;;;;;;;4.88;1.92;;;691.60;1689.60;;;;;;5094681;28;20033;-74
2022/07/05 17:57:39;;;;;;;10.40;2.90;;;691.50;1689.60;;;;;;5092994;28;20024;-73
2022/07/05 18:00:05;;;;;;;4.88;3.03;;;691.50;1689.60;;;;;;5094317;28;20034;-75
2022/07/05 18:02:31;;;;;;;22.02;14.23;;;691.50;1689.60;;;;;;5093211;28;20121;-75
2022/07/05 18:04:57;;;;;;;19.60;12.32;;;691.50;1689.60;;;;;;5094373;28;20085;-76
2022/07/05 18:07:24;;;;;;;9.50;6.70;;;691.50;1715.20;;;;;;5094061;28;20473;-74
2022/07/05 18:09:49;;;;;;;12.05;9.02;;;691.40;1689.60;;;;;;5093823;28;20541;-74
2022/07/05 18:12:15;;;;;;;5.57;2.70;;;691.50;1689.60;;;;;;5094275;28;20023;-75
2022/07/05 18:14:41;;;;;;;3.58;2.65;;;691.40;1689.60;;;;;;5092511;28;20122;-74
2022/07/05 18:17:07;;;;;;;7.57;4.93;;;691.40;1689.60;;;;;;5094008;28;20026;-74
2022/07/05 18:19:33;;;;;;;8.13;4.85;;;691.40;1689.60;;;;;;5093204;28;20103;-74
2022/07/05 18:21:59;;;;;;;5.72;2.17;;;691.40;1689.60;;;;;;5094612;28;20020;-74
2022/07/05 18:24:24;;;;;;;4.57;2.30;;;691.40;1689.60;;;;;;5094630;28;20020;-75
2022/07/05 18:26:51;;;;;;;5.25;2.30;;;691.30;1689.60;;;;;;5095364;28;20032;-74
2022/07/05 18:29:17;;;;;;;13.27;4.25;;;691.30;1689.60;;;;;;5094951;28;20499;-74
2022/07/05 18:31:42;;;;;;;8.63;5.65;;;691.30;1715.20;;;;;;5094741;28;20093;-74
2022/07/05 18:34:08;;;;;;;10.25;5.55;;;691.20;1715.20;;;;;;5093662;28;20472;-73
2022/07/05 18:36:34;;;;;;;10.10;3.42;;;691.20;1715.20;;;;;;5094859;28;20020;-73
2022/07/05 18:39:01;;;;;;;22.77;11.25;;;691.20;1715.20;;;;;;5093384;28;20232;-73
2022/07/05 18:41:27;;;;;;;15.10;9.75;;;691.20;1715.20;;;;;;5095192;28;20099;-72
2022/07/05 18:43:54;;;;;;;16.58;9.95;;;691.20;1715.20;;;;;;5094809;28;20024;-72
2022/07/05 18:46:20;;;;;;;18.10;9.55;;;691.20;1715.20;;;;;;5094310;28;20016;-71
2022/07/05 18:48:48;;;;;;;7.80;4.97;;;666.50;1740.80;;;;;;5094897;28;20066;-73
2022/07/05 18:51:14;;;;;;;17.55;8.98;;;666.40;1740.80;;;;;;5094274;28;20410;-73
2022/07/05 18:53:40;;;;;;;19.13;14.45;;;666.40;1740.80;;;;;;5093983;28;20024;-73
2022/07/05 18:56:06;;;;;;;6.00;4.07;;;666.40;1766.40;;;;;;5090094;28;20282;-74
2022/07/05 18:58:31;;;;;;;7.70;4.60;;;666.10;1766.40;;;;;;5092761;28;20376;-73
2022/07/05 19:00:57;;;;;;;11.73;5.53;;;666.30;1766.40;;;;;;5092672;28;20016;-73
2022/07/05 19:03:23;;;;;;;10.48;4.93;;;666.30;1766.40;;;;;;5093152;28;20464;-73
2022/07/05 19:14:09;;;;;;;8.45;3.80;;;666.30;1766.40;;;;;;5092618;28;20023;-73
2022/07/05 19:16:35;;;;;;;12.45;9.10;;;666.20;1792.00;;;;;;5092663;28;20024;-74
2022/07/05 19:19:01;;;;;;;9.40;4.13;;;666.10;1792.00;;;;;;5092355;28;20027;-73
2022/07/05 19:21:27;;;;;;;10.57;7.50;;;666.10;1792.00;;;;;;5092948;28;20021;-73
2022/07/05 19:23:52;;;;;;;7.82;5.93;;;666.00;1817.60;;;;;;5092386;28;20533;-75
2022/07/05 19:26:18;;;;;;;6.47;3.40;;;666.00;1817.60;;;;;;5092063;28;20020;-74
2022/07/05 19:28:44;;;;;;;4.50;2.38;;;666.00;1817.60;;;;;;5091530;28;20024;-73
2022/07/05 19:31:10;;;;;;;10.82;7.00;;;666.00;1843.20;;;;;;5093168;28;20020;-73
2022/07/05 19:33:36;;;;;;;10.63;4.72;;;666.00;1843.20;;;;;;5093282;28;20020;-72
2022/07/05 19:36:03;;;;;;;8.95;5.43;;;665.80;1843.20;;;;;;5093646;28;20529;-73
2022/07/05 19:38:29;;;;;;;7.90;4.85;;;665.80;1843.20;;;;;;5093830;28;20035;-72
2022/07/05 19:40:55;;;;;;;6.97;3.75;;;665.90;1843.20;;;;;;5094264;28;20024;-73
2022/07/05 19:43:21;;;;;;;9.45;7.25;;;666.00;1843.20;;;;;;5094025;28;20028;-73
2022/07/05 19:45:48;;;;;;;27.48;19.27;;;665.90;1843.20;;;;;;5093717;28;20023;-72
2022/07/05 19:48:14;;;;;;;5.13;3.70;;;665.80;1868.80;;;;;;5093669;28;20024;-72
2022/07/05 19:50:39;;;;;;;7.05;3.53;;;665.90;1843.20;;;;;;5093130;28;20043;-73
2022/07/05 19:53:05;;;;;;;5.05;3.30;;;665.90;1843.20;;;;;;5092885;28;20399;-73
2022/07/05 19:55:31;;;;;;;6.03;3.33;;;665.90;1843.20;;;;;;5092295;28;20032;-73
2022/07/05 19:57:57;;;;;;;3.38;2.78;;;665.90;1843.20;;;;;;5091481;28;20473;-73
2022/07/05 20:00:23;;;;;;;5.68;2.53;;;665.90;1843.20;;;;;;5091412;28;20028;-73
2022/07/05 20:02:49;;;;;;;7.55;2.80;;;665.70;1868.80;;;;;;5091667;28;20561;-73
2022/07/05 20:05:15;;;;;;;10.30;3.05;;;665.70;1894.40;;;;;;5091343;28;20077;-73
2022/07/05 20:07:40;;;;;;;5.78;2.88;;;665.60;1894.40;;;;;;5092257;28;20024;-72
2022/07/05 20:10:07;;;;;;;4.68;2.42;;;640.90;1868.80;;;;;;5089023;28;20048;-72
2022/07/05 20:12:33;;;;;;;5.25;2.38;;;665.60;1894.40;;;;;;5092796;28;20026;-72
2022/07/05 20:15:00;;;;;;;6.85;2.75;;;640.80;1868.80;;;;;;5091889;28;20028;-72
2022/07/05 20:17:26;;;;;;;9.50;2.47;;;640.80;1868.80;;;;;;5091170;28;20016;-72
2022/07/05 20:19:52;;;;;;;4.03;2.45;;;640.80;1894.40;;;;;;5091811;28;20027;-71
2022/07/05 20:22:18;;;;;;;7.55;2.03;;;640.70;1894.40;;;;;;5091904;28;20497;-72
2022/07/05 20:24:44;;;;;;;4.88;2.30;;;640.70;1894.40;;;;;;5090362;28;20024;-72
2022/07/05 20:27:10;;;;;;;12.77;8.45;;;640.70;1894.40;;;;;;5091685;28;20697;-73
2022/07/05 20:29:36;;;;;;;9.70;5.78;;;640.60;1894.40;;;;;;5091774;28;20476;-72
2022/07/05 20:32:02;;;;;;;7.95;7.13;;;640.60;1894.40;;;;;;5094690;28;20157;-72
2022/07/05 20:34:27;;;;;;;32.10;25.88;;;640.60;1920.00;;;;;;5095335;28;20070;-73
2022/07/05 20:36:55;;;;;;;28.17;19.58;;;640.50;1894.40;;;;;;5095568;28;20069;-72
2022/07/05 20:39:21;;;;;;;5.40;3.50;;;640.50;1894.40;;;;;;5093110;28;20020;-71
2022/07/05 20:41:47;;;;;;;10.23;8.23;;;640.50;1894.40;;;;;;5095657;28;20012;-71
2022/07/05 20:44:13;;;;;;;7.28;3.10;;;640.30;1920.00;;;;;;5095822;28;20028;-73
2022/07/05 20:46:38;;;;;;;5.20;3.10;;;640.30;1945.60;;;;;;5094521;28;20032;-71
2022/07/05 20:49:04;;;;;;;6.82;1.92;;;640.20;1945.60;;;;;;5092181;28;20068;-72
2022/07/05 20:51:30;;;;;;;5.70;2.22;;;640.20;1945.60;;;;;;5094276;28;20054;-71
2022/07/05 20:53:56;;;;;;;17.10;10.80;;;640.20;1945.60;;;;;;5095566;28;20024;-73
2022/07/05 20:56:22;;;;;;;15.40;10.75;;;640.00;1971.20;;;;;;5096025;28;20066;-71
2022/07/05 20:58:47;;;;;;;6.05;3.58;;;640.00;1971.20;;;;;;5095924;28;20028;-70
2022/07/05 21:01:13;;;;;;;16.70;10.38;;;615.30;1971.20;;;;;;5095895;28;20024;-71
2022/07/05 21:03:39;;;;;;;14.02;8.68;;;615.30;1971.20;;;;;;5095845;28;20103;-70
2022/07/05 21:06:05;;;;;;;5.38;2.55;;;615.20;1996.80;;;;;;5095582;28;20529;-72
2022/07/05 21:08:31;;;;;;;6.80;2.13;;;615.20;1996.80;;;;;;5095422;28;20059;-72
2022/07/05 21:10:56;;;;;;;5.63;3.90;;;615.10;2022.40;;;;;;5094808;28;20055;-72
2022/07/05 21:13:22;;;;;;;3.05;2.03;;;615.00;2022.40;;;;;;5095218;28;20103;-71
2022/07/05 21:15:48;;;;;;;4.88;2.17;;;615.00;2022.40;;;;;;5096027;28;20412;-72
2022/07/05 21:18:14;;;;;;;3.00;2.10;;;615.00;2048.00;;;;;;5095161;28;20044;-72
2022/07/05 21:20:39;;;;;;;2.88;2.00;;;614.90;2048.00;;;;;;5095166;28;20430;-71
2022/07/05 21:23:05;;;;;;;5.13;2.30;;;614.90;2048.00;;;;;;5095404;28;20016;-71
2022/07/05 21:25:31;;;;;;;3.47;2.10;;;614.90;2048.00;;;;;;5095548;28;20028;-71
2022/07/05 21:27:57;;;;;;;3.22;2.13;;;614.80;2073.60;;;;;;5096373;28;20472;-70
2022/07/05 21:30:22;;;;;;;3.97;1.85;;;614.70;2073.60;;;;;;5095396;28;20100;-73
2022/07/05 21:32:48;;;;;;;3.47;2.20;;;614.70;2073.60;;;;;;5094894;28;20094;-72
2022/07/05 21:35:14;;;;;;;4.35;2.22;;;614.70;2073.60;;;;;;5094811;28;20513;-72
2022/07/05 21:37:40;;;;;;;3.22;2.40;;;614.60;2099.20;;;;;;5094738;28;20020;-72
2022/07/05 21:40:06;;;;;;;2.40;2.20;;;614.70;2073.60;;;;;;5093493;28;20024;-71
2022/07/05 21:42:32;;;;;;;6.63;2.05;;;614.70;2099.20;;;;;;5095371;28;20032;-70
2022/07/05 21:44:58;;;;;;;3.92;2.42;;;614.40;2124.80;;;;;;5095981;28;20028;-71
2022/07/05 21:47:24;;;;;;;4.82;2.22;;;614.50;2099.20;;;;;;5095983;28;20028;-71
2022/07/05 21:49:50;;;;;;;5.50;2.03;;;614.50;2124.80;;;;;;5095689;28;20032;-71
2022/07/05 21:52:16;;;;;;;4.22;1.95;;;614.50;2124.80;;;;;;5095941;28;20017;-70
2022/07/05 21:54:42;;;;;;;5.32;2.60;;;614.40;2150.40;;;;;;5095688;28;20055;-70
2022/07/05 21:57:08;;;;;;;5.28;2.00;;;589.60;2176.00;;;;;;5094398;28;20024;-71
2022/07/05 22:05:03;;;;;;;6.30;2.67;;;589.40;2227.20;;;;;;5075429;28;20539;-71
2022/07/05 22:07:29;;;;;;;3.72;2.10;;;589.20;2252.80;;;;;;5075396;28;20024;-72
2022/07/05 22:09:55;;;;;;;3.05;2.28;;;589.30;2252.80;;;;;;5074983;28;20080;-71
2022/07/05 22:12:20;;;;;;;6.28;3.03;;;589.20;2278.40;;;;;;5076256;28;20025;-71
2022/07/05 22:14:47;;;;;;;3.72;2.60;;;589.10;2278.40;;;;;;5095142;28;20385;-71
2022/07/05 22:17:14;;;;;;;5.25;2.88;;;589.10;2278.40;;;;;;5095332;28;20013;-71
2022/07/05 22:19:40;;;;;;;4.35;2.72;;;589.20;2278.40;;;;;;5095162;28;20480;-71
2022/07/05 22:22:06;;;;;;;6.47;2.30;;;589.10;2278.40;;;;;;5093925;28;20047;-72
2022/07/05 22:24:32;;;;;;;3.67;2.78;;;589.20;2278.40;;;;;;5095077;28;20055;-71
2022/07/05 22:26:58;;;;;;;4.78;2.40;;;589.10;2304.00;;;;;;5093929;28;20469;-70
2022/07/05 22:29:24;;;;;;;6.82;2.65;;;589.10;2304.00;;;;;;5093086;28;20118;-71
2022/07/05 22:31:50;;;;;;;3.25;2.80;;;589.10;2304.00;;;;;;5093164;28;20103;-71
2022/07/05 22:34:16;;;;;;;3.45;2.50;;;589.10;2329.60;;;;;;5093120;28;20520;-71
2022/07/05 22:36:42;;;;;;;3.95;2.55;;;589.10;2329.60;;;;;;5093159;28;20373;-70
2022/07/05 22:39:08;;;;;;;4.95;2.70;;;589.10;2329.60;;;;;;5091724;28;20049;-70
2022/07/05 22:41:34;;;;;;;4.45;2.90;;;589.00;2355.20;;;;;;5093575;28;20034;-71
2022/07/05 22:44:01;;;;;;;4.43;3.05;;;588.90;2355.20;;;;;;5094838;28;20028;-70
2022/07/05 22:46:26;;;;;;;6.22;2.53;;;588.90;2355.20;;;;;;5094786;28;20028;-70
2022/07/05 22:48:52;;;;;;;3.30;2.55;;;589.00;2355.20;;;;;;5094765;28;20020;-70
2022/07/05 22:51:18;;;;;;;3.67;2.88;;;588.80;2380.80;;;;;;5094778;28;20046;-70
2022/07/05 22:53:44;;;;;;;3.70;2.78;;;588.80;2380.80;;;;;;5093790;28;20082;-70
2022/07/05 22:56:10;;;;;;;3.30;2.60;;;588.80;2380.80;;;;;;5094610;28;20021;-70
2022/07/05 22:58:36;;;;;;;2.78;2.40;;;564.10;2406.40;;;;;;5094580;28;20020;-70
2022/07/05 23:01:02;;;;;;;4.88;3.25;;;564.10;2406.40;;;;;;5094570;28;20024;-71
2022/07/05 23:03:28;;;;;;;3.95;3.03;;;564.10;2432.00;;;;;;5094364;28;20099;-70
2022/07/05 23:05:54;;;;;;;6.97;3.70;;;563.90;2432.00;;;;;;5094139;28;20036;-71
2022/07/05 23:08:20;;;;;;;5.55;4.00;;;563.90;2432.00;;;;;;5092700;28;20020;-72
2022/07/05 23:10:46;;;;;;;5.43;4.03;;;563.80;2432.00;;;;;;5094330;28;20042;-71
2022/07/05 23:13:12;;;;;;;4.70;4.20;;;563.70;2432.00;;;;;;5094191;28;20031;-71
2022/07/05 23:15:37;;;;;;;8.05;4.10;;;563.70;2432.00;;;;;;5094205;28;20031;-71
2022/07/05 23:18:03;;;;;;;4.78;4.15;;;563.60;2432.00;;;;;;5094540;28;20016;-71
2022/07/05 23:20:29;;;;;;;6.18;5.10;;;563.60;2432.00;;;;;;5094206;28;20039;-70
2022/07/05 23:22:55;;;;;;;10.15;5.68;;;563.50;2432.00;;;;;;5094433;28;20020;-71
2022/07/05 23:25:21;;;;;;;6.03;5.25;;;563.40;2432.00;;;;;;5094080;28;20028;-70
2022/07/05 23:27:47;;;;;;;8.10;5.50;;;563.30;2432.00;;;;;;5094190;28;20062;-72
2022/07/05 23:30:13;;;;;;;11.13;5.78;;;563.30;2432.00;;;;;;5093991;28;20036;-72
2022/07/05 23:32:39;;;;;;;7.78;6.35;;;563.30;2432.00;;;;;;5093915;28;20051;-70
2022/07/05 23:35:05;;;;;;;9.93;6.60;;;563.30;2432.00;;;;;;5092753;28;20024;-72
2022/07/05 23:37:31;;;;;;;8.43;5.85;;;563.30;2432.00;;;;;;5093923;28;20549;-71
2022/07/05 23:39:57;;;;;;;6.90;5.40;;;563.30;2432.00;;;;;;5093967;28;20059;-72
2022/07/05 23:42:23;;;;;;;5.80;4.68;;;563.20;2432.00;;;;;;5093784;28;20354;-70
2022/07/05 23:44:49;;;;;;;7.78;5.32;;;563.20;2432.00;;;;;;5093801;28;20028;-72
2022/07/05 23:47:15;;;;;;;6.45;4.85;;;563.30;2432.00;;;;;;5093813;28;20020;-71
2022/07/05 23:49:41;;;;;;;7.28;4.20;;;563.30;2432.00;;;;;;5093444;28;20035;-72
2022/07/05 23:52:07;;;;;;;5.63;4.35;;;563.30;2432.00;;;;;;5093509;28;20023;-73
2022/07/05 23:54:51;;;;;;;5.45;3.75;;;563.20;2432.00;;;;;;5093565;28;20487;-72
2022/07/05 23:57:17;;;;;;;7.97;4.05;;;563.20;2432.00;;;;;;5093824;28;20484;-71
